sensor_id;sensor_type;location;lat;lon;timestamp;P1;durP1;ratioP1;P2;durP2;ratioP2
19739;SDS011;10027;51.066;13.768;2024-01-30T00:00:51;18.20;;;8.03;;
19739;SDS011;10027;51.066;13.768;2024-01-30T00:03:18;17.53;;;8.83;;
19739;SDS011;10027;51.066;13.768;2024-01-30T00:05:45;14.80;;;8.33;;
19739;SDS011;10027;51.066;13.768;2024-01-30T00:08:13;16.40;;;7.90;;
19739;SDS011;10027;51.066;13.768;2024-01-30T00:10:40;20.67;;;8.00;;
19739;SDS011;10027;51.066;13.768;2024-01-30T00:13:07;18.63;;;8.13;;
19739;SDS011;10027;51.066;13.768;2024-01-30T00:15:34;17.77;;;8.40;;
19739;SDS011;10027;51.066;13.768;2024-01-30T00:18:02;15.97;;;8.20;;
19739;SDS011;10027;51.066;13.768;2024-01-30T00:20:29;17.43;;;8.23;;
19739;SDS011;10027;51.066;13.768;2024-01-30T00:22:56;15.70;;;7.90;;
19739;SDS011;10027;51.066;13.768;2024-01-30T00:25:23;16.90;;;7.97;;
19739;SDS011;10027;51.066;13.768;2024-01-30T00:27:50;16.90;;;8.37;;
19739;SDS011;10027;51.066;13.768;2024-01-30T00:30:17;21.37;;;8.13;;
19739;SDS011;10027;51.066;13.768;2024-01-30T00:32:45;17.53;;;8.87;;
19739;SDS011;10027;51.066;13.768;2024-01-30T00:35:12;15.20;;;8.23;;
19739;SDS011;10027;51.066;13.768;2024-01-30T00:37:40;15.37;;;7.67;;
19739;SDS011;10027;51.066;13.768;2024-01-30T00:40:07;17.17;;;8.40;;
19739;SDS011;10027;51.066;13.768;2024-01-30T00:42:36;17.63;;;8.63;;
19739;SDS011;10027;51.066;13.768;2024-01-30T00:45:03;18.30;;;8.37;;
19739;SDS011;10027;51.066;13.768;2024-01-30T00:47:31;21.47;;;8.43;;
19739;SDS011;10027;51.066;13.768;2024-01-30T00:49:59;20.50;;;8.40;;
19739;SDS011;10027;51.066;13.768;2024-01-30T00:52:26;16.67;;;8.23;;
19739;SDS011;10027;51.066;13.768;2024-01-30T00:54:53;19.53;;;8.50;;
19739;SDS011;10027;51.066;13.768;2024-01-30T00:57:21;18.30;;;8.27;;
19739;SDS011;10027;51.066;13.768;2024-01-30T00:59:48;17.57;;;7.97;;
19739;SDS011;10027;51.066;13.768;2024-01-30T01:02:15;15.73;;;7.60;;
19739;SDS011;10027;51.066;13.768;2024-01-30T01:04:44;14.13;;;7.27;;
19739;SDS011;10027;51.066;13.768;2024-01-30T01:07:11;16.03;;;8.33;;
19739;SDS011;10027;51.066;13.768;2024-01-30T01:09:38;17.10;;;7.57;;
19739;SDS011;10027;51.066;13.768;2024-01-30T01:12:06;15.57;;;7.77;;
19739;SDS011;10027;51.066;13.768;2024-01-30T01:14:33;15.40;;;7.50;;
19739;SDS011;10027;51.066;13.768;2024-01-30T01:17:00;16.07;;;7.63;;
19739;SDS011;10027;51.066;13.768;2024-01-30T01:19:27;18.60;;;7.87;;
19739;SDS011;10027;51.066;13.768;2024-01-30T01:21:55;17.17;;;7.43;;
19739;SDS011;10027;51.066;13.768;2024-01-30T01:24:23;22.53;;;8.20;;
19739;SDS011;10027;51.066;13.768;2024-01-30T01:26:50;17.27;;;7.80;;
19739;SDS011;10027;51.066;13.768;2024-01-30T01:29:18;18.93;;;7.20;;
19739;SDS011;10027;51.066;13.768;2024-01-30T01:31:45;16.63;;;7.87;;
19739;SDS011;10027;51.066;13.768;2024-01-30T01:34:13;15.30;;;7.60;;
19739;SDS011;10027;51.066;13.768;2024-01-30T01:36:41;14.90;;;7.87;;
19739;SDS011;10027;51.066;13.768;2024-01-30T01:39:08;18.40;;;7.40;;
19739;SDS011;10027;51.066;13.768;2024-01-30T01:41:35;17.60;;;8.20;;
19739;SDS011;10027;51.066;13.768;2024-01-30T01:44:02;15.27;;;8.10;;
19739;SDS011;10027;51.066;13.768;2024-01-30T01:46:30;15.33;;;7.47;;
19739;SDS011;10027;51.066;13.768;2024-01-30T01:49:03;14.53;;;6.90;;
19739;SDS011;10027;51.066;13.768;2024-01-30T01:51:32;15.43;;;7.37;;
19739;SDS011;10027;51.066;13.768;2024-01-30T01:54:01;16.47;;;7.50;;
19739;SDS011;10027;51.066;13.768;2024-01-30T01:56:29;13.33;;;7.10;;
19739;SDS011;10027;51.066;13.768;2024-01-30T01:58:57;18.47;;;7.03;;
19739;SDS011;10027;51.066;13.768;2024-01-30T02:01:26;18.43;;;7.47;;
19739;SDS011;10027;51.066;13.768;2024-01-30T02:03:54;14.47;;;7.57;;
19739;SDS011;10027;51.066;13.768;2024-01-30T02:06:21;15.83;;;7.20;;
19739;SDS011;10027;51.066;13.768;2024-01-30T02:08:49;15.10;;;7.47;;
19739;SDS011;10027;51.066;13.768;2024-01-30T02:11:16;15.37;;;7.73;;
19739;SDS011;10027;51.066;13.768;2024-01-30T02:13:44;18.13;;;7.40;;
19739;SDS011;10027;51.066;13.768;2024-01-30T02:16:11;14.70;;;7.37;;
19739;SDS011;10027;51.066;13.768;2024-01-30T02:18:38;16.43;;;7.67;;
19739;SDS011;10027;51.066;13.768;2024-01-30T02:21:11;15.67;;;7.53;;
19739;SDS011;10027;51.066;13.768;2024-01-30T02:23:39;16.00;;;6.87;;
19739;SDS011;10027;51.066;13.768;2024-01-30T02:26:06;12.77;;;6.47;;
19739;SDS011;10027;51.066;13.768;2024-01-30T02:28:33;15.20;;;7.60;;
19739;SDS011;10027;51.066;13.768;2024-01-30T02:31:00;17.10;;;7.40;;
19739;SDS011;10027;51.066;13.768;2024-01-30T02:33:28;14.10;;;7.30;;
19739;SDS011;10027;51.066;13.768;2024-01-30T02:35:55;13.87;;;6.87;;
19739;SDS011;10027;51.066;13.768;2024-01-30T02:38:22;17.17;;;7.40;;
19739;SDS011;10027;51.066;13.768;2024-01-30T02:40:49;18.03;;;7.60;;
19739;SDS011;10027;51.066;13.768;2024-01-30T02:43:16;16.73;;;7.57;;
19739;SDS011;10027;51.066;13.768;2024-01-30T02:45:44;17.47;;;7.57;;
19739;SDS011;10027;51.066;13.768;2024-01-30T02:48:11;14.53;;;7.20;;
19739;SDS011;10027;51.066;13.768;2024-01-30T02:50:38;16.57;;;7.23;;
19739;SDS011;10027;51.066;13.768;2024-01-30T02:53:05;16.57;;;7.70;;
19739;SDS011;10027;51.066;13.768;2024-01-30T02:55:33;15.47;;;7.53;;
19739;SDS011;10027;51.066;13.768;2024-01-30T02:58:00;20.37;;;7.70;;
19739;SDS011;10027;51.066;13.768;2024-01-30T03:00:27;18.50;;;7.63;;
19739;SDS011;10027;51.066;13.768;2024-01-30T03:02:54;15.50;;;6.90;;
19739;SDS011;10027;51.066;13.768;2024-01-30T03:05:21;14.77;;;7.07;;
19739;SDS011;10027;51.066;13.768;2024-01-30T03:07:49;19.87;;;7.10;;
19739;SDS011;10027;51.066;13.768;2024-01-30T03:10:16;15.03;;;7.23;;
19739;SDS011;10027;51.066;13.768;2024-01-30T03:12:43;20.87;;;7.77;;
19739;SDS011;10027;51.066;13.768;2024-01-30T03:15:10;14.43;;;7.30;;
19739;SDS011;10027;51.066;13.768;2024-01-30T03:17:38;16.27;;;7.43;;
19739;SDS011;10027;51.066;13.768;2024-01-30T03:20:05;14.23;;;6.83;;
19739;SDS011;10027;51.066;13.768;2024-01-30T03:22:32;21.53;;;7.27;;
19739;SDS011;10027;51.066;13.768;2024-01-30T03:24:59;16.83;;;7.07;;
19739;SDS011;10027;51.066;13.768;2024-01-30T03:27:27;15.90;;;7.63;;
19739;SDS011;10027;51.066;13.768;2024-01-30T03:29:55;12.83;;;6.23;;
19739;SDS011;10027;51.066;13.768;2024-01-30T03:32:22;14.73;;;6.90;;
19739;SDS011;10027;51.066;13.768;2024-01-30T03:34:49;14.23;;;7.17;;
19739;SDS011;10027;51.066;13.768;2024-01-30T03:37:16;16.07;;;6.80;;
19739;SDS011;10027;51.066;13.768;2024-01-30T03:39:43;13.90;;;7.53;;
19739;SDS011;10027;51.066;13.768;2024-01-30T03:42:11;16.93;;;7.73;;
19739;SDS011;10027;51.066;13.768;2024-01-30T03:44:38;18.63;;;7.20;;
19739;SDS011;10027;51.066;13.768;2024-01-30T03:47:05;16.40;;;7.20;;
19739;SDS011;10027;51.066;13.768;2024-01-30T03:49:32;14.83;;;6.97;;
19739;SDS011;10027;51.066;13.768;2024-01-30T03:52:00;16.23;;;7.03;;
19739;SDS011;10027;51.066;13.768;2024-01-30T03:54:27;16.93;;;6.97;;
19739;SDS011;10027;51.066;13.768;2024-01-30T03:56:54;15.90;;;7.53;;
19739;SDS011;10027;51.066;13.768;2024-01-30T03:59:21;18.20;;;8.03;;
19739;SDS011;10027;51.066;13.768;2024-01-30T04:01:50;14.30;;;6.50;;
19739;SDS011;10027;51.066;13.768;2024-01-30T04:04:18;19.60;;;7.23;;
19739;SDS011;10027;51.066;13.768;2024-01-30T04:06:45;16.17;;;7.13;;
19739;SDS011;10027;51.066;13.768;2024-01-30T04:09:13;12.20;;;6.63;;
19739;SDS011;10027;51.066;13.768;2024-01-30T04:11:41;15.63;;;7.23;;
19739;SDS011;10027;51.066;13.768;2024-01-30T04:14:08;15.43;;;7.47;;
19739;SDS011;10027;51.066;13.768;2024-01-30T04:16:35;16.67;;;7.03;;
19739;SDS011;10027;51.066;13.768;2024-01-30T04:19:02;18.37;;;7.13;;
19739;SDS011;10027;51.066;13.768;2024-01-30T04:21:30;25.53;;;7.83;;
19739;SDS011;10027;51.066;13.768;2024-01-30T04:23:57;13.53;;;6.87;;
19739;SDS011;10027;51.066;13.768;2024-01-30T04:26:24;17.93;;;6.83;;
19739;SDS011;10027;51.066;13.768;2024-01-30T04:28:52;18.70;;;7.33;;
19739;SDS011;10027;51.066;13.768;2024-01-30T04:31:19;16.43;;;6.63;;
19739;SDS011;10027;51.066;13.768;2024-01-30T04:33:46;15.03;;;7.33;;
19739;SDS011;10027;51.066;13.768;2024-01-30T04:36:13;15.00;;;7.30;;
19739;SDS011;10027;51.066;13.768;2024-01-30T04:38:40;13.10;;;7.03;;
19739;SDS011;10027;51.066;13.768;2024-01-30T04:41:07;15.80;;;7.60;;
19739;SDS011;10027;51.066;13.768;2024-01-30T04:43:35;15.23;;;6.97;;
19739;SDS011;10027;51.066;13.768;2024-01-30T04:46:02;14.37;;;7.03;;
19739;SDS011;10027;51.066;13.768;2024-01-30T04:48:29;18.60;;;7.23;;
19739;SDS011;10027;51.066;13.768;2024-01-30T04:50:56;13.83;;;6.40;;
19739;SDS011;10027;51.066;13.768;2024-01-30T04:53:23;19.33;;;7.10;;
19739;SDS011;10027;51.066;13.768;2024-01-30T04:55:51;18.93;;;7.17;;
19739;SDS011;10027;51.066;13.768;2024-01-30T04:58:18;12.20;;;6.50;;
19739;SDS011;10027;51.066;13.768;2024-01-30T05:00:45;14.03;;;6.83;;
19739;SDS011;10027;51.066;13.768;2024-01-30T05:03:14;16.33;;;6.97;;
19739;SDS011;10027;51.066;13.768;2024-01-30T05:05:42;13.83;;;6.93;;
19739;SDS011;10027;51.066;13.768;2024-01-30T05:08:09;14.23;;;6.93;;
19739;SDS011;10027;51.066;13.768;2024-01-30T05:10:37;14.80;;;6.87;;
19739;SDS011;10027;51.066;13.768;2024-01-30T05:13:04;13.80;;;6.90;;
19739;SDS011;10027;51.066;13.768;2024-01-30T05:15:31;15.87;;;7.40;;
19739;SDS011;10027;51.066;13.768;2024-01-30T05:17:58;14.50;;;6.80;;
19739;SDS011;10027;51.066;13.768;2024-01-30T05:20:26;14.23;;;7.23;;
19739;SDS011;10027;51.066;13.768;2024-01-30T05:22:56;17.07;;;7.07;;
19739;SDS011;10027;51.066;13.768;2024-01-30T05:25:23;17.93;;;6.97;;
19739;SDS011;10027;51.066;13.768;2024-01-30T05:27:51;16.20;;;7.10;;
19739;SDS011;10027;51.066;13.768;2024-01-30T05:30:18;16.80;;;7.00;;
19739;SDS011;10027;51.066;13.768;2024-01-30T05:32:45;14.33;;;6.57;;
19739;SDS011;10027;51.066;13.768;2024-01-30T05:35:13;16.60;;;6.97;;
19739;SDS011;10027;51.066;13.768;2024-01-30T05:37:40;15.97;;;6.80;;
19739;SDS011;10027;51.066;13.768;2024-01-30T05:40:07;17.33;;;7.10;;
19739;SDS011;10027;51.066;13.768;2024-01-30T05:42:34;15.97;;;6.97;;
19739;SDS011;10027;51.066;13.768;2024-01-30T05:45:02;18.97;;;6.93;;
19739;SDS011;10027;51.066;13.768;2024-01-30T05:47:29;15.37;;;6.93;;
19739;SDS011;10027;51.066;13.768;2024-01-30T05:49:56;14.30;;;6.97;;
19739;SDS011;10027;51.066;13.768;2024-01-30T05:52:23;15.97;;;7.27;;
19739;SDS011;10027;51.066;13.768;2024-01-30T05:54:51;18.77;;;7.23;;
19739;SDS011;10027;51.066;13.768;2024-01-30T05:57:18;13.83;;;7.10;;
19739;SDS011;10027;51.066;13.768;2024-01-30T05:59:45;13.90;;;6.67;;
19739;SDS011;10027;51.066;13.768;2024-01-30T06:02:15;15.97;;;7.27;;
19739;SDS011;10027;51.066;13.768;2024-01-30T06:04:42;14.07;;;7.23;;
19739;SDS011;10027;51.066;13.768;2024-01-30T06:07:10;14.77;;;6.77;;
19739;SDS011;10027;51.066;13.768;2024-01-30T06:09:38;16.20;;;7.60;;
19739;SDS011;10027;51.066;13.768;2024-01-30T06:12:05;17.87;;;7.30;;
19739;SDS011;10027;51.066;13.768;2024-01-30T06:14:32;14.17;;;6.83;;
19739;SDS011;10027;51.066;13.768;2024-01-30T06:16:59;14.73;;;6.83;;
19739;SDS011;10027;51.066;13.768;2024-01-30T06:19:27;18.83;;;7.03;;
19739;SDS011;10027;51.066;13.768;2024-01-30T06:21:54;15.37;;;6.90;;
19739;SDS011;10027;51.066;13.768;2024-01-30T06:24:21;14.27;;;6.97;;
19739;SDS011;10027;51.066;13.768;2024-01-30T06:26:48;15.87;;;7.23;;
19739;SDS011;10027;51.066;13.768;2024-01-30T06:29:15;12.17;;;6.50;;
19739;SDS011;10027;51.066;13.768;2024-01-30T06:31:45;15.97;;;7.33;;
19739;SDS011;10027;51.066;13.768;2024-01-30T06:34:12;14.97;;;6.60;;
19739;SDS011;10027;51.066;13.768;2024-01-30T06:36:40;16.70;;;7.30;;
19739;SDS011;10027;51.066;13.768;2024-01-30T06:39:07;11.80;;;6.53;;
19739;SDS011;10027;51.066;13.768;2024-01-30T06:41:35;16.10;;;6.83;;
19739;SDS011;10027;51.066;13.768;2024-01-30T06:44:02;15.63;;;6.73;;
19739;SDS011;10027;51.066;13.768;2024-01-30T06:46:31;18.37;;;6.93;;
19739;SDS011;10027;51.066;13.768;2024-01-30T06:48:58;11.63;;;6.77;;
19739;SDS011;10027;51.066;13.768;2024-01-30T06:51:26;18.33;;;7.07;;
19739;SDS011;10027;51.066;13.768;2024-01-30T06:53:53;15.13;;;7.00;;
19739;SDS011;10027;51.066;13.768;2024-01-30T06:56:20;18.33;;;7.10;;
19739;SDS011;10027;51.066;13.768;2024-01-30T06:58:47;13.63;;;6.87;;
19739;SDS011;10027;51.066;13.768;2024-01-30T07:01:15;14.13;;;7.03;;
19739;SDS011;10027;51.066;13.768;2024-01-30T07:03:42;18.50;;;6.83;;
19739;SDS011;10027;51.066;13.768;2024-01-30T07:06:10;17.10;;;7.00;;
19739;SDS011;10027;51.066;13.768;2024-01-30T07:08:38;13.73;;;6.77;;
19739;SDS011;10027;51.066;13.768;2024-01-30T07:11:05;15.07;;;7.20;;
19739;SDS011;10027;51.066;13.768;2024-01-30T07:13:33;14.13;;;7.23;;
19739;SDS011;10027;51.066;13.768;2024-01-30T07:16:00;13.60;;;7.23;;
19739;SDS011;10027;51.066;13.768;2024-01-30T07:18:28;13.77;;;7.03;;
19739;SDS011;10027;51.066;13.768;2024-01-30T07:20:55;17.57;;;7.07;;
19739;SDS011;10027;51.066;13.768;2024-01-30T07:23:22;13.77;;;6.83;;
19739;SDS011;10027;51.066;13.768;2024-01-30T07:25:49;14.37;;;6.80;;
19739;SDS011;10027;51.066;13.768;2024-01-30T07:28:17;13.93;;;7.37;;
19739;SDS011;10027;51.066;13.768;2024-01-30T07:30:44;18.17;;;6.87;;
19739;SDS011;10027;51.066;13.768;2024-01-30T07:33:12;15.90;;;6.70;;
19739;SDS011;10027;51.066;13.768;2024-01-30T07:35:39;17.23;;;7.10;;
19739;SDS011;10027;51.066;13.768;2024-01-30T07:38:07;14.83;;;6.73;;
19739;SDS011;10027;51.066;13.768;2024-01-30T07:40:34;17.10;;;6.93;;
19739;SDS011;10027;51.066;13.768;2024-01-30T07:43:01;18.07;;;7.43;;
19739;SDS011;10027;51.066;13.768;2024-01-30T07:45:29;11.73;;;6.57;;
19739;SDS011;10027;51.066;13.768;2024-01-30T07:47:59;15.87;;;7.33;;
19739;SDS011;10027;51.066;13.768;2024-01-30T07:50:27;16.00;;;7.23;;
19739;SDS011;10027;51.066;13.768;2024-01-30T07:52:59;10.33;;;6.80;;
19739;SDS011;10027;51.066;13.768;2024-01-30T07:55:26;15.67;;;7.63;;
19739;SDS011;10027;51.066;13.768;2024-01-30T07:57:55;15.23;;;6.83;;
19739;SDS011;10027;51.066;13.768;2024-01-30T08:00:22;13.37;;;7.40;;
19739;SDS011;10027;51.066;13.768;2024-01-30T08:02:50;20.00;;;8.57;;
19739;SDS011;10027;51.066;13.768;2024-01-30T08:05:20;13.80;;;7.70;;
19739;SDS011;10027;51.066;13.768;2024-01-30T08:07:51;14.77;;;7.70;;
19739;SDS011;10027;51.066;13.768;2024-01-30T08:10:20;15.80;;;8.10;;
19739;SDS011;10027;51.066;13.768;2024-01-30T08:12:47;15.60;;;8.33;;
19739;SDS011;10027;51.066;13.768;2024-01-30T08:15:15;14.87;;;8.27;;
19739;SDS011;10027;51.066;13.768;2024-01-30T08:17:42;16.07;;;7.80;;
19739;SDS011;10027;51.066;13.768;2024-01-30T08:20:11;14.37;;;7.60;;
19739;SDS011;10027;51.066;13.768;2024-01-30T08:22:39;16.97;;;8.00;;
19739;SDS011;10027;51.066;13.768;2024-01-30T08:25:06;16.63;;;8.23;;
19739;SDS011;10027;51.066;13.768;2024-01-30T08:27:34;13.40;;;7.80;;
19739;SDS011;10027;51.066;13.768;2024-01-30T08:30:05;13.63;;;7.50;;
19739;SDS011;10027;51.066;13.768;2024-01-30T08:32:32;15.07;;;7.83;;
19739;SDS011;10027;51.066;13.768;2024-01-30T08:34:59;16.67;;;8.67;;
19739;SDS011;10027;51.066;13.768;2024-01-30T08:37:30;14.73;;;7.83;;
19739;SDS011;10027;51.066;13.768;2024-01-30T08:39:57;14.80;;;8.33;;
19739;SDS011;10027;51.066;13.768;2024-01-30T08:42:25;12.60;;;7.73;;
19739;SDS011;10027;51.066;13.768;2024-01-30T08:44:52;12.83;;;7.63;;
19739;SDS011;10027;51.066;13.768;2024-01-30T08:47:20;14.47;;;7.97;;
19739;SDS011;10027;51.066;13.768;2024-01-30T08:49:47;13.80;;;8.00;;
19739;SDS011;10027;51.066;13.768;2024-01-30T08:52:15;15.57;;;7.97;;
19739;SDS011;10027;51.066;13.768;2024-01-30T08:54:42;14.83;;;8.33;;
19739;SDS011;10027;51.066;13.768;2024-01-30T08:57:09;16.47;;;7.83;;
19739;SDS011;10027;51.066;13.768;2024-01-30T08:59:36;15.20;;;7.97;;
19739;SDS011;10027;51.066;13.768;2024-01-30T09:02:03;13.70;;;7.77;;
19739;SDS011;10027;51.066;13.768;2024-01-30T09:04:38;13.83;;;8.20;;
19739;SDS011;10027;51.066;13.768;2024-01-30T09:07:06;12.70;;;7.60;;
19739;SDS011;10027;51.066;13.768;2024-01-30T09:09:39;15.17;;;7.70;;
19739;SDS011;10027;51.066;13.768;2024-01-30T09:12:07;12.47;;;8.00;;
19739;SDS011;10027;51.066;13.768;2024-01-30T09:14:36;16.57;;;8.40;;
19739;SDS011;10027;51.066;13.768;2024-01-30T09:17:03;16.03;;;8.30;;
19739;SDS011;10027;51.066;13.768;2024-01-30T09:19:31;15.77;;;8.30;;
19739;SDS011;10027;51.066;13.768;2024-01-30T09:21:58;13.70;;;8.10;;
19739;SDS011;10027;51.066;13.768;2024-01-30T09:24:26;13.90;;;7.93;;
19739;SDS011;10027;51.066;13.768;2024-01-30T09:26:53;16.33;;;8.50;;
19739;SDS011;10027;51.066;13.768;2024-01-30T09:29:21;16.17;;;8.00;;
19739;SDS011;10027;51.066;13.768;2024-01-30T09:31:48;14.23;;;8.80;;
19739;SDS011;10027;51.066;13.768;2024-01-30T09:34:15;14.63;;;7.87;;
19739;SDS011;10027;51.066;13.768;2024-01-30T09:36:42;15.37;;;8.13;;
19739;SDS011;10027;51.066;13.768;2024-01-30T09:39:10;14.33;;;8.07;;
19739;SDS011;10027;51.066;13.768;2024-01-30T09:41:41;13.83;;;7.97;;
19739;SDS011;10027;51.066;13.768;2024-01-30T09:44:12;16.50;;;7.93;;
19739;SDS011;10027;51.066;13.768;2024-01-30T09:46:40;18.53;;;8.63;;
19739;SDS011;10027;51.066;13.768;2024-01-30T09:49:08;14.33;;;8.23;;
19739;SDS011;10027;51.066;13.768;2024-01-30T09:51:36;15.30;;;8.17;;
19739;SDS011;10027;51.066;13.768;2024-01-30T09:54:03;16.30;;;8.37;;
19739;SDS011;10027;51.066;13.768;2024-01-30T09:56:30;15.87;;;8.43;;
19739;SDS011;10027;51.066;13.768;2024-01-30T09:58:57;14.63;;;8.47;;
19739;SDS011;10027;51.066;13.768;2024-01-30T10:01:24;16.10;;;8.80;;
19739;SDS011;10027;51.066;13.768;2024-01-30T10:03:53;16.70;;;8.20;;
19739;SDS011;10027;51.066;13.768;2024-01-30T10:06:21;15.63;;;8.63;;
19739;SDS011;10027;51.066;13.768;2024-01-30T10:08:50;14.03;;;8.47;;
19739;SDS011;10027;51.066;13.768;2024-01-30T10:11:18;14.57;;;8.13;;
19739;SDS011;10027;51.066;13.768;2024-01-30T10:13:45;19.83;;;8.60;;
19739;SDS011;10027;51.066;13.768;2024-01-30T10:16:13;13.17;;;7.87;;
19739;SDS011;10027;51.066;13.768;2024-01-30T10:18:43;16.03;;;8.80;;
19739;SDS011;10027;51.066;13.768;2024-01-30T10:21:10;15.23;;;8.60;;
19739;SDS011;10027;51.066;13.768;2024-01-30T10:23:37;13.30;;;7.97;;
19739;SDS011;10027;51.066;13.768;2024-01-30T10:26:05;13.90;;;8.37;;
19739;SDS011;10027;51.066;13.768;2024-01-30T10:28:34;16.30;;;8.40;;
19739;SDS011;10027;51.066;13.768;2024-01-30T10:31:01;15.97;;;8.60;;
19739;SDS011;10027;51.066;13.768;2024-01-30T10:33:32;14.03;;;8.63;;
19739;SDS011;10027;51.066;13.768;2024-01-30T10:36:01;13.43;;;7.83;;
19739;SDS011;10027;51.066;13.768;2024-01-30T10:38:29;15.57;;;8.63;;
19739;SDS011;10027;51.066;13.768;2024-01-30T10:40:57;15.57;;;8.37;;
19739;SDS011;10027;51.066;13.768;2024-01-30T10:43:30;16.67;;;8.47;;
19739;SDS011;10027;51.066;13.768;2024-01-30T10:46:19;15.73;;;8.23;;
19739;SDS011;10027;51.066;13.768;2024-01-30T10:48:50;13.43;;;7.90;;
19739;SDS011;10027;51.066;13.768;2024-01-30T10:51:22;14.97;;;7.87;;
19739;SDS011;10027;51.066;13.768;2024-01-30T10:53:49;14.03;;;8.03;;
19739;SDS011;10027;51.066;13.768;2024-01-30T10:56:17;16.83;;;8.27;;
19739;SDS011;10027;51.066;13.768;2024-01-30T10:58:45;15.30;;;8.60;;
19739;SDS011;10027;51.066;13.768;2024-01-30T11:01:12;18.43;;;7.73;;
19739;SDS011;10027;51.066;13.768;2024-01-30T11:03:39;13.77;;;8.43;;
19739;SDS011;10027;51.066;13.768;2024-01-30T11:06:10;13.23;;;8.20;;
19739;SDS011;10027;51.066;13.768;2024-01-30T11:08:40;15.87;;;8.53;;
19739;SDS011;10027;51.066;13.768;2024-01-30T11:11:08;15.97;;;8.40;;
19739;SDS011;10027;51.066;13.768;2024-01-30T11:13:36;14.83;;;8.17;;
19739;SDS011;10027;51.066;13.768;2024-01-30T11:16:03;16.67;;;9.07;;
19739;SDS011;10027;51.066;13.768;2024-01-30T11:18:32;17.00;;;8.97;;
19739;SDS011;10027;51.066;13.768;2024-01-30T11:20:59;13.93;;;8.70;;
19739;SDS011;10027;51.066;13.768;2024-01-30T11:23:28;16.10;;;9.13;;
19739;SDS011;10027;51.066;13.768;2024-01-30T11:25:56;17.57;;;8.40;;
19739;SDS011;10027;51.066;13.768;2024-01-30T11:28:24;14.77;;;9.20;;
19739;SDS011;10027;51.066;13.768;2024-01-30T11:30:51;14.47;;;8.93;;
19739;SDS011;10027;51.066;13.768;2024-01-30T11:33:28;16.07;;;8.77;;
19739;SDS011;10027;51.066;13.768;2024-01-30T11:36:00;15.70;;;8.77;;
19739;SDS011;10027;51.066;13.768;2024-01-30T11:38:28;17.70;;;9.20;;
19739;SDS011;10027;51.066;13.768;2024-01-30T11:40:56;16.47;;;8.33;;
19739;SDS011;10027;51.066;13.768;2024-01-30T11:43:23;13.10;;;8.40;;
19739;SDS011;10027;51.066;13.768;2024-01-30T11:45:51;16.73;;;8.53;;
19739;SDS011;10027;51.066;13.768;2024-01-30T11:48:19;14.53;;;8.33;;
19739;SDS011;10027;51.066;13.768;2024-01-30T11:50:46;22.47;;;8.97;;
19739;SDS011;10027;51.066;13.768;2024-01-30T11:53:13;16.67;;;8.23;;
19739;SDS011;10027;51.066;13.768;2024-01-30T11:55:41;16.37;;;8.60;;
19739;SDS011;10027;51.066;13.768;2024-01-30T11:58:09;14.60;;;8.57;;
19739;SDS011;10027;51.066;13.768;2024-01-30T12:00:36;15.33;;;8.23;;
19739;SDS011;10027;51.066;13.768;2024-01-30T12:03:03;16.77;;;8.83;;
19739;SDS011;10027;51.066;13.768;2024-01-30T12:05:33;15.77;;;8.43;;
19739;SDS011;10027;51.066;13.768;2024-01-30T12:08:00;14.97;;;8.60;;
19739;SDS011;10027;51.066;13.768;2024-01-30T12:10:28;16.43;;;9.00;;
19739;SDS011;10027;51.066;13.768;2024-01-30T12:12:56;14.67;;;8.60;;
19739;SDS011;10027;51.066;13.768;2024-01-30T12:15:24;15.67;;;7.87;;
19739;SDS011;10027;51.066;13.768;2024-01-30T12:17:52;14.13;;;8.90;;
19739;SDS011;10027;51.066;13.768;2024-01-30T12:20:19;18.10;;;8.17;;
19739;SDS011;10027;51.066;13.768;2024-01-30T12:22:49;14.00;;;8.30;;
19739;SDS011;10027;51.066;13.768;2024-01-30T12:25:17;15.33;;;8.80;;
19739;SDS011;10027;51.066;13.768;2024-01-30T12:27:46;15.70;;;8.60;;
19739;SDS011;10027;51.066;13.768;2024-01-30T12:30:17;19.00;;;8.53;;
19739;SDS011;10027;51.066;13.768;2024-01-30T12:32:45;14.90;;;8.00;;
19739;SDS011;10027;51.066;13.768;2024-01-30T12:35:13;14.43;;;8.20;;
19739;SDS011;10027;51.066;13.768;2024-01-30T12:37:41;18.93;;;8.80;;
19739;SDS011;10027;51.066;13.768;2024-01-30T12:40:08;19.37;;;8.80;;
19739;SDS011;10027;51.066;13.768;2024-01-30T12:42:36;16.17;;;8.47;;
19739;SDS011;10027;51.066;13.768;2024-01-30T12:45:03;14.73;;;8.60;;
19739;SDS011;10027;51.066;13.768;2024-01-30T12:47:31;18.03;;;8.50;;
19739;SDS011;10027;51.066;13.768;2024-01-30T12:49:59;19.67;;;9.03;;
19739;SDS011;10027;51.066;13.768;2024-01-30T12:52:26;14.13;;;8.70;;
19739;SDS011;10027;51.066;13.768;2024-01-30T12:54:53;14.47;;;9.10;;
19739;SDS011;10027;51.066;13.768;2024-01-30T12:57:20;19.80;;;9.03;;
19739;SDS011;10027;51.066;13.768;2024-01-30T12:59:48;18.77;;;8.53;;
19739;SDS011;10027;51.066;13.768;2024-01-30T13:02:15;15.67;;;8.40;;
19739;SDS011;10027;51.066;13.768;2024-01-30T13:04:43;16.07;;;8.30;;
19739;SDS011;10027;51.066;13.768;2024-01-30T13:07:15;21.43;;;9.33;;
19739;SDS011;10027;51.066;13.768;2024-01-30T13:09:42;16.90;;;9.07;;
19739;SDS011;10027;51.066;13.768;2024-01-30T13:12:10;17.77;;;9.20;;
19739;SDS011;10027;51.066;13.768;2024-01-30T13:14:37;15.43;;;8.90;;
19739;SDS011;10027;51.066;13.768;2024-01-30T13:17:04;13.17;;;8.10;;
19739;SDS011;10027;51.066;13.768;2024-01-30T13:19:31;15.80;;;8.87;;
19739;SDS011;10027;51.066;13.768;2024-01-30T13:21:59;15.83;;;9.30;;
19739;SDS011;10027;51.066;13.768;2024-01-30T13:24:26;19.67;;;9.53;;
19739;SDS011;10027;51.066;13.768;2024-01-30T13:26:53;15.30;;;9.30;;
19739;SDS011;10027;51.066;13.768;2024-01-30T13:29:21;17.87;;;9.57;;
19739;SDS011;10027;51.066;13.768;2024-01-30T13:31:48;18.47;;;8.67;;
19739;SDS011;10027;51.066;13.768;2024-01-30T13:34:15;15.53;;;9.07;;
19739;SDS011;10027;51.066;13.768;2024-01-30T13:36:43;19.73;;;9.23;;
19739;SDS011;10027;51.066;13.768;2024-01-30T13:39:11;16.37;;;8.87;;
19739;SDS011;10027;51.066;13.768;2024-01-30T13:41:39;15.13;;;8.50;;
19739;SDS011;10027;51.066;13.768;2024-01-30T13:44:06;14.27;;;8.87;;
19739;SDS011;10027;51.066;13.768;2024-01-30T13:46:33;16.20;;;8.83;;
19739;SDS011;10027;51.066;13.768;2024-01-30T13:49:01;19.03;;;9.30;;
19739;SDS011;10027;51.066;13.768;2024-01-30T13:51:28;17.77;;;9.57;;
19739;SDS011;10027;51.066;13.768;2024-01-30T13:53:55;16.77;;;8.53;;
19739;SDS011;10027;51.066;13.768;2024-01-30T13:56:22;15.93;;;9.23;;
19739;SDS011;10027;51.066;13.768;2024-01-30T13:58:51;17.87;;;9.30;;
19739;SDS011;10027;51.066;13.768;2024-01-30T14:01:18;17.87;;;9.47;;
19739;SDS011;10027;51.066;13.768;2024-01-30T14:03:45;16.73;;;9.07;;
19739;SDS011;10027;51.066;13.768;2024-01-30T14:06:13;19.53;;;8.60;;
19739;SDS011;10027;51.066;13.768;2024-01-30T14:08:40;14.77;;;9.23;;
19739;SDS011;10027;51.066;13.768;2024-01-30T14:11:13;17.97;;;8.80;;
19739;SDS011;10027;51.066;13.768;2024-01-30T14:13:47;15.80;;;8.47;;
19739;SDS011;10027;51.066;13.768;2024-01-30T14:16:14;19.77;;;9.53;;
19739;SDS011;10027;51.066;13.768;2024-01-30T14:18:41;19.13;;;9.47;;
19739;SDS011;10027;51.066;13.768;2024-01-30T14:21:09;17.33;;;9.07;;
19739;SDS011;10027;51.066;13.768;2024-01-30T14:23:36;16.93;;;9.23;;